Kinetic-One Castle Combe TT Series
Skip Navigation Links
Results
Team Results
Live Leaderboard
DB Max TT Series
Race Stats
Smartphone Results
09 August 2017
HyperLink
Page 1 of 3 (127 items)
[1]23
Pos
Bib No
Fav
Share
Photo
Name
Time
Category
Cat Pos
Gender
Gen Pos
Club
Pace
Split 1
G/Pos
Lap 1
G/Pos
Lap 2
G/Pos
Lap 3
G/Pos
Lap 4
G/Pos
Lap 5
G/Pos
1138Ben SKINNER19:51.23Sen1Male1RULE #530.2 m/hr1:35.0323:35.9013:39.2713:38.6613:42.0913:40.271
2140David JANES20:00.93Sen2Male2VELOTON30.0 m/hr1:34.7613:39.5523:40.8023:42.4323:42.6023:40.762
3110Jamie WILKINS20:41.97Sen3Male3VELOTON29.0 m/hr1:45.7773:51.0433:49.2533:43.8433:46.3333:45.733
474Tavis WALKER21:19.92Sen4Male4DRK RACE TEAM28.1 m/hr1:46.37103:54.3553:54.8343:55.0643:53.1043:56.176
5128Paul RYMAN21:29.88Sen5Male5TEAM DB MAX27.9 m/hr1:42.9733:53.8143:57.4853:58.4753:57.5353:59.609
6125Rachael ELLIOTT21:31.09Sen1Female1DRAG 2 ZERO27.9 m/hr1:50.6723:54.5613:57.0013:57.0513:57.5113:54.291
7126Ian GREENSTREET21:41.22Vet501Male6NEWBURY ROAD CLUB27.7 m/hr1:46.76123:57.9993:59.61104:01.2194:02.1993:53.445
873Richard BROOK21:43.31Vet451Male7 27.6 m/hr1:46.41113:55.4863:58.0363:59.0964:00.8174:03.4811
9114Jonathan GRIFFIN21:46.35Vet551Male8CYCOLOGY BIKES 27.6 m/hr1:47.96173:58.71123:59.1584:00.5674:00.7863:59.177
10109Michael MILSTEAD21:48.59Sen6Male9ST MARYS RUNNING & TRIATHLON (THE SMART CLUB)27.5 m/hr1:47.77163:58.27113:59.3594:00.7584:03.12113:59.328
11106James FRITCHLEY21:52.27Sen7Male10WESTBURY WHEELERS27.4 m/hr1:49.96184:00.94134:03.17124:02.08104:02.93103:53.174
12118Tim MAY 21:57.85Sen8Male11SIMONSTRONG MEDIA VELO 27.3 m/hr1:46.3394:01.67153:58.3374:03.32114:05.32124:02.8610
13139Jason STREATHER21:59.16Vet401Male12VC ST RAPHAEL27.3 m/hr1:44.1743:56.0273:59.64114:07.19134:07.70154:04.4313
1472Deacon CUTTERHAM22:04.40Sen9Male13GIANTVELOTORQ27.2 m/hr1:44.8063:58.01104:05.99154:05.12124:05.64134:04.8315
15135Chris DAVIS22:06.55Vet601Male14GIANTVELOTORQ27.1 m/hr1:50.29193:57.8184:04.00134:08.64164:01.8084:03.9912
16136Jim PETERS22:15.93Vet502Male15GIANTVELOTORQ26.9 m/hr1:44.6954:01.30144:05.41144:07.79144:10.85164:05.8716
17131Malcolm DIXON22:39.79Sen10Male16NORTH BRISTOL TRI CLUB26.5 m/hr1:46.98134:02.90164:10.91204:13.40224:13.41214:12.1822
18104Sean LEADBEATER 22:42.89Sen11Male17NORTH BRISTOL TRI CLUB26.4 m/hr1:47.24144:10.71194:11.65214:08.60154:12.05184:12.6223
19132Lee FRANCIS22:43.56Sen12Male18GIANTVELOTORQ26.4 m/hr1:51.95264:05.26184:08.76164:11.95204:12.07194:13.5526
20130Tom BANDY22:44.62Sen13Male19PORTSDOWN HILL CC26.4 m/hr1:57.02374:04.75174:10.02174:11.19184:11.87174:09.7519
2198Fiona PREW22:47.20Sen2Female2RULE #526.3 m/hr1:55.8534:13.3134:11.8824:13.6324:09.9324:02.582
22115David LUGTON22:51.80Sen14Male20PORTSDOWN HILL CC26.2 m/hr2:00.05414:17.17304:13.46234:08.86174:07.66144:04.5914
23123George WADSWORTH22:51.86Jun1Male21VELOTON26.2 m/hr1:45.7884:11.16204:14.80244:17.10274:15.39254:07.6018
24116Steve POTTS22:53.08Vet552Male22VC ST RAPHAEL26.2 m/hr1:53.20284:11.61224:10.59194:16.13254:14.40234:07.1417
25120Rob VESSEY22:53.13Vet503Male23MICKEY CRANKS CC26.2 m/hr1:51.19224:12.16254:10.20184:12.50214:13.97224:13.0924
26112Jared LINDEN22:56.30Sen15Male24RDFCC26.2 m/hr1:54.56294:13.88274:12.41224:11.57194:12.83204:11.0321
2714Mike COX23:09.74Vet602Male25CYCOLOGY BIKES 25.9 m/hr1:51.58234:11.83234:18.96284:15.61244:18.04284:13.6927
2897Ian MOORE23:11.38Vet504Male26CYCOLOGY BIKES 25.9 m/hr1:50.47204:11.49214:19.37294:16.42264:17.87274:15.7529
29134Nicki CARR23:12.49Sen3Female3VCEQUIPE-FLIX25.9 m/hr1:46.4414:11.5824:18.7144:18.9144:18.5844:18.264
3061Jake MITCHELL23:17.23Sen16Male27NORTH BRISTOL TRI CLUB25.8 m/hr1:50.80214:12.23264:17.41264:20.40294:18.92304:17.4532
31127Peter HATT23:19.59Vet505Male28VC ST RAPHAEL25.7 m/hr1:51.78244:11.94244:18.75274:20.59304:19.49314:17.0230
32122Martin DISNEY23:22.25Vet402Male29TEAM DB MAX25.7 m/hr1:54.58304:17.19314:15.62254:20.87314:23.11324:10.8620
33103Dominic SPALDING23:22.96Vet506Male30MICKEY CRANKS CC25.7 m/hr1:58.64394:15.27284:21.47314:15.03234:15.37244:17.1731
3447Mark COLLINS23:26.73Sen17Male31SALT AND SHAM CC25.6 m/hr1:58.39384:15.40294:19.86304:19.75284:18.45294:14.8728
3594Olav MARTIN-GILES 23:35.04Vet452Male32SIMONSTRONG MEDIA VELO 25.4 m/hr1:55.64354:21.09324:23.93334:23.56334:17.57264:13.2325
36102Caitlin PETERS23:44.64Jun1Female4RULE #525.3 m/hr1:56.7544:24.6754:23.0054:22.3254:19.6754:18.213
37101Nick DART23:57.90Vet403Male33 25.0 m/hr2:00.34424:23.35344:25.10344:24.52344:23.47334:21.1136
3878Ray PERKINS23:59.45Vet507Male34 25.0 m/hr2:01.37464:24.89364:23.54324:22.36324:26.13364:21.1437
3949Yi Heng/elliot CHEW/BARRATT24:02.872-up1Male35BATH CC25.0 m/hr2:01.54484:24.86354:26.53354:26.76354:25.29354:17.8833
40107Robert SIMS24:13.60Sen18Male36SEVERN ROAD CLUB24.8 m/hr1:56.85364:28.66374:29.28374:28.32364:30.24384:20.2435
4176Joanne JAGO24:14.89Sen4Female5PERFORMANCE CYCLE24.7 m/hr2:00.8064:27.1264:28.3764:24.7564:30.3364:23.505
4299Clive SHIPWAY24:17.36Vet404Male37 24.7 m/hr1:47.77154:29.66384:35.88434:29.62374:31.93394:22.4938
43133Melanie SNEDDON24:18.27Vet401Female6GIANTVELOTORQ24.7 m/hr2:06.49144:16.1244:15.9034:16.5734:10.7535:12.4322
4448Rob BURGESS24:19.52Sen19Male38BATH AMPHIBIANS24.7 m/hr2:03.75514:30.54404:29.69384:31.59394:25.10344:18.8434
45108Will BROMHAM24:21.61Jun2Male39WESTBURY WHEELERS24.6 m/hr1:52.25274:22.85334:28.11364:33.37404:33.58404:31.4340
46113Thomas RICHES24:23.74Sen20Male40FMTC24.6 m/hr1:54.67314:32.39424:31.32394:30.46384:29.83374:25.0639
473Will WHITMORE24:46.68Vet453Male41TEAM DB MAX24.2 m/hr1:55.52334:33.46454:35.24414:36.73444:33.70414:32.0143
48117Janet BIRKMYRE24:47.31Vet501Female7GIANTVELOTORQ24.2 m/hr2:04.59114:30.7774:30.5574:32.9774:37.0594:31.359
4983Jules BIRCH24:51.19Vet402Female8MICKEY CRANKS CC24.1 m/hr2:09.10164:31.9484:34.6184:36.8084:32.4274:26.306
5087Mike ANDERSOM24:52.98Vet553Male42VC ST RAPHAEL24.1 m/hr2:03.26504:32.92434:34.56404:35.22424:34.13424:32.8844
Page 1 of 3 (127 items)
[1]23
fb

HyperLink Copyright (c) G Vincent, 2017